createdAt,value
2019-01-04T00:01:22.226Z,70.33
2019-01-04T00:04:23.926Z,70.28
2019-01-04T00:07:25.317Z,70.07
2019-01-04T00:10:26.828Z,69.67
2019-01-04T00:13:28.216Z,70.00
2019-01-04T00:16:29.840Z,70.33
2019-01-04T00:19:31.426Z,70.46
2019-01-04T00:22:33.053Z,70.38
2019-01-04T00:25:34.437Z,70.61
2019-01-04T00:28:35.967Z,70.66
2019-01-04T00:31:38.448Z,70.03
2019-01-04T00:34:40.207Z,70.23
2019-01-04T00:37:41.687Z,70.75
2019-01-04T00:40:43.210Z,71.01
2019-01-04T00:43:44.594Z,71.22
2019-01-04T00:46:46.114Z,70.64
2019-01-04T00:49:47.498Z,70.39
2019-01-04T00:52:49.124Z,69.72
2019-01-04T00:56:08.097Z,69.72
2019-01-04T00:59:41.796Z,69.36
2019-01-04T01:02:54.313Z,68.99
2019-01-04T01:06:36.626Z,69.37
2019-01-04T01:10:15.689Z,69.59
2019-01-04T01:13:37.486Z,68.84
2019-01-04T01:16:56.184Z,69.57
2019-01-04T01:20:27.704Z,68.88
2019-01-04T01:24:14.544Z,68.14
2019-01-04T01:27:54.887Z,68.18
2019-01-04T01:31:23.434Z,68.15
2019-01-04T01:34:48.377Z,68.17
2019-01-04T01:37:55.888Z,68.44
2019-01-04T01:41:38.593Z,68.50
2019-01-04T01:45:23.992Z,68.53
2019-01-04T01:48:29.867Z,68.74
2019-01-04T01:51:39.777Z,69.49
2019-01-04T01:54:41.341Z,69.79
2019-01-04T01:57:42.736Z,69.39
2019-01-04T02:00:45.376Z,69.46
2019-01-04T02:03:46.760Z,69.65
2019-01-04T02:06:48.287Z,69.47
2019-01-04T02:09:50.008Z,68.88
2019-01-04T02:12:51.600Z,68.87
2019-01-04T02:15:52.993Z,69.10
2019-01-04T02:18:54.508Z,68.94
2019-01-04T02:21:55.897Z,69.17
2019-01-04T02:24:57.563Z,69.46
2019-01-04T02:27:59.003Z,69.22
2019-01-04T02:31:00.522Z,69.38
2019-01-04T02:34:01.941Z,69.01
2019-01-04T02:37:03.430Z,68.71
2019-01-04T02:40:05.458Z,68.87
2019-01-04T02:43:07.022Z,68.86
2019-01-04T02:46:08.398Z,69.33
2019-01-04T02:49:09.960Z,69.68
2019-01-04T02:52:11.352Z,69.88
2019-01-04T02:55:12.970Z,69.65
2019-01-04T02:58:14.364Z,69.48
2019-01-04T03:01:16.081Z,69.49
2019-01-04T03:04:17.464Z,69.88
2019-01-04T03:07:18.991Z,70.13
2019-01-04T03:10:20.554Z,70.34
2019-01-04T03:13:22.100Z,69.64
2019-01-04T03:16:23.768Z,68.94
2019-01-04T03:19:25.314Z,69.28
2019-01-04T03:22:26.705Z,70.12
2019-01-04T03:25:28.223Z,70.39
2019-01-04T03:28:29.605Z,70.58
2019-01-04T03:31:31.127Z,70.73
2019-01-04T03:34:32.508Z,71.14
2019-01-04T03:37:34.033Z,71.53
2019-01-04T03:40:35.550Z,71.86
2019-01-04T03:43:37.049Z,71.89
2019-01-04T03:46:38.442Z,71.63
2019-01-04T03:49:39.952Z,71.55
2019-01-04T03:52:41.337Z,71.79
2019-01-04T03:55:42.857Z,71.42
2019-01-04T03:58:44.253Z,71.62
2019-01-04T04:01:46.074Z,71.81
2019-01-04T04:04:47.458Z,72.07
2019-01-04T04:07:48.979Z,72.26
2019-01-04T04:10:50.594Z,71.62
2019-01-04T04:13:52.095Z,71.42
2019-01-04T04:16:53.480Z,71.41
2019-01-04T04:19:54.998Z,71.24
2019-01-04T04:22:56.393Z,71.43
2019-01-04T04:25:57.903Z,70.85
2019-01-04T04:28:59.397Z,70.08
2019-01-04T04:32:00.909Z,70.01
2019-01-04T04:35:04.000Z,69.95
2019-01-04T04:38:05.564Z,69.96
2019-01-04T04:41:07.178Z,70.47
2019-01-04T04:44:08.674Z,71.14
2019-01-04T04:47:10.062Z,70.93
2019-01-04T04:50:11.786Z,70.38
2019-01-04T04:53:13.176Z,70.92
2019-01-04T04:56:14.690Z,71.79
2019-01-04T04:59:16.097Z,72.22
2019-01-04T05:02:17.802Z,72.29
2019-01-04T05:05:19.191Z,72.23
2019-01-04T05:08:20.810Z,72.12
2019-01-04T05:11:22.324Z,72.39
2019-01-04T05:14:23.816Z,72.57
2019-01-04T05:17:25.208Z,72.36
2019-01-04T05:20:26.726Z,72.11
2019-01-04T05:23:28.116Z,71.95
2019-01-04T05:26:29.630Z,71.81
2019-01-04T05:29:31.021Z,71.77
2019-01-04T05:32:32.495Z,71.63
2019-01-04T05:35:33.883Z,71.83
2019-01-04T05:38:35.451Z,71.66
2019-01-04T05:41:36.962Z,71.24
2019-01-04T05:44:38.456Z,71.03
2019-01-04T05:47:39.848Z,71.07
2019-01-04T05:50:41.361Z,70.72
2019-01-04T05:53:42.745Z,70.85
2019-01-04T05:56:44.273Z,70.87
2019-01-04T05:59:45.665Z,70.90
2019-01-04T06:02:47.384Z,71.00
2019-01-04T06:05:48.775Z,71.08
2019-01-04T06:08:50.287Z,71.06
2019-01-04T06:11:51.908Z,71.40
2019-01-04T06:14:53.601Z,71.44
2019-01-04T06:17:54.989Z,71.66
2019-01-04T06:20:56.522Z,72.03
2019-01-04T06:23:57.904Z,72.54
2019-01-04T06:26:59.425Z,72.87
2019-01-04T06:30:00.917Z,73.24
2019-01-04T06:33:02.430Z,73.14
2019-01-04T06:36:03.819Z,73.35
2019-01-04T06:39:06.363Z,73.49
2019-01-04T06:42:08.178Z,73.68
2019-01-04T06:45:09.773Z,73.87
2019-01-04T06:48:11.166Z,74.14
2019-01-04T06:51:12.644Z,73.92
2019-01-04T06:54:19.745Z,74.01
2019-01-04T06:57:21.322Z,73.75
2019-01-04T07:00:22.717Z,73.68
2019-01-04T07:03:24.434Z,73.73
2019-01-04T07:06:25.824Z,73.77
2019-01-04T07:09:27.346Z,73.51
2019-01-04T07:12:28.965Z,73.92
2019-01-04T07:15:30.557Z,74.12
2019-01-04T07:18:31.955Z,73.98
2019-01-04T07:21:33.460Z,73.61
2019-01-04T07:24:34.861Z,73.94
2019-01-04T07:27:36.365Z,74.04
2019-01-04T07:30:37.760Z,74.15
2019-01-04T07:33:39.316Z,74.24
2019-01-04T07:36:40.705Z,74.16
2019-01-04T07:39:42.284Z,74.12
2019-01-04T07:42:43.788Z,74.10
2019-01-04T07:45:45.287Z,73.96
2019-01-04T07:48:46.674Z,73.85
2019-01-04T07:51:48.201Z,73.70
2019-01-04T07:54:49.590Z,73.45
2019-01-04T07:57:51.109Z,73.25
2019-01-04T08:00:52.518Z,72.91
2019-01-04T08:03:54.209Z,72.66
2019-01-04T08:06:55.592Z,72.19
2019-01-04T08:09:57.121Z,71.98
2019-01-04T08:12:58.822Z,71.29
2019-01-04T08:16:00.337Z,71.27
2019-01-04T08:19:01.731Z,71.47
2019-01-04T08:22:03.251Z,71.52
2019-01-04T08:25:06.450Z,71.56
2019-01-04T08:28:08.034Z,71.88
2019-01-04T08:31:09.441Z,72.24
2019-01-04T08:34:11.004Z,72.38
2019-01-04T08:37:12.397Z,72.49
2019-01-04T08:40:14.013Z,72.30
2019-01-04T08:43:15.927Z,71.50
2019-01-04T08:46:17.399Z,71.29
2019-01-04T08:49:18.787Z,71.47
2019-01-04T08:52:20.340Z,71.58
2019-01-04T08:55:21.830Z,71.39
2019-01-04T08:58:23.344Z,70.94
2019-01-04T09:01:24.741Z,70.59
2019-01-04T09:04:27.320Z,69.60
2019-01-04T09:07:28.706Z,68.79
2019-01-04T09:10:30.175Z,68.16
2019-01-04T09:13:31.699Z,67.43
2019-01-04T09:16:33.196Z,65.94
2019-01-04T09:19:34.588Z,64.98
2019-01-04T09:22:36.202Z,64.81
2019-01-04T09:25:37.599Z,64.32
2019-01-04T09:28:39.105Z,63.42
2019-01-04T09:31:40.601Z,62.04
2019-01-04T09:34:42.114Z,60.60
2019-01-04T09:37:43.610Z,57.61
2019-01-04T09:40:45.125Z,55.44
2019-01-04T09:43:46.640Z,53.69
2019-01-04T09:46:48.129Z,52.29
2019-01-04T09:49:49.520Z,52.77
2019-01-04T09:52:51.049Z,54.80
2019-01-04T09:55:52.438Z,56.88
2019-01-04T09:58:53.949Z,58.09
2019-01-04T10:01:55.444Z,58.80
2019-01-04T10:04:57.284Z,59.88
2019-01-04T10:07:58.668Z,60.36
2019-01-04T10:11:00.185Z,59.19
2019-01-04T10:14:01.685Z,59.42
2019-01-04T10:17:03.260Z,59.80
2019-01-04T10:20:08.363Z,59.68
2019-01-04T10:23:09.930Z,60.44
2019-01-04T10:26:12.417Z,61.16
2019-01-04T10:29:13.908Z,61.56
2019-01-04T10:32:15.306Z,62.30
2019-01-04T10:35:16.817Z,62.25
2019-01-04T10:38:18.208Z,62.31
2019-01-04T10:41:19.725Z,62.59
2019-01-04T10:44:21.340Z,62.92
2019-01-04T10:47:22.833Z,63.53
2019-01-04T10:50:24.229Z,63.94
2019-01-04T10:53:25.740Z,63.84
2019-01-04T10:56:27.133Z,64.28
2019-01-04T10:59:28.645Z,64.51
2019-01-04T11:02:30.039Z,64.08
2019-01-04T11:05:32.118Z,63.68
2019-01-04T11:08:33.505Z,63.52
2019-01-04T11:11:35.071Z,62.47
2019-01-04T11:14:36.690Z,62.11
2019-01-04T11:17:38.224Z,61.94
2019-01-04T11:20:42.317Z,61.95
2019-01-04T11:23:57.919Z,61.90
2019-01-04T11:26:59.476Z,62.30
2019-01-04T11:30:15.849Z,62.55
2019-01-04T11:33:17.557Z,63.12
2019-01-04T11:36:46.503Z,63.27
2019-01-04T11:40:17.895Z,63.30
2019-01-04T11:43:55.249Z,63.25
2019-01-04T11:47:26.337Z,63.15
2019-01-04T11:50:57.642Z,63.03
2019-01-04T11:53:59.835Z,62.98
2019-01-04T11:57:01.378Z,62.31
2019-01-04T12:00:09.394Z,62.44
2019-01-04T12:03:11.041Z,62.47
2019-01-04T12:06:13.362Z,62.55
2019-01-04T12:09:14.853Z,61.97
2019-01-04T12:12:16.387Z,61.72
2019-01-04T12:15:17.882Z,61.30
2019-01-04T12:18:19.407Z,61.39
2019-01-04T12:21:20.893Z,61.32
2019-01-04T12:24:22.389Z,61.41
2019-01-04T12:27:23.917Z,61.93
2019-01-04T12:30:25.330Z,61.58
2019-01-04T12:33:26.909Z,62.05
2019-01-04T12:36:28.400Z,61.37
2019-01-04T12:39:30.021Z,61.92
2019-01-04T12:42:31.410Z,61.96
2019-01-04T12:45:32.877Z,62.57
2019-01-04T12:48:34.450Z,62.36
2019-01-04T12:51:35.937Z,62.81
2019-01-04T12:54:37.329Z,62.81
2019-01-04T12:57:39.036Z,63.28
2019-01-04T13:00:40.431Z,62.92
2019-01-04T13:03:41.956Z,62.90
2019-01-04T13:06:43.438Z,63.67
2019-01-04T13:09:44.992Z,62.78
2019-01-04T13:12:46.382Z,62.86
2019-01-04T13:15:48.008Z,62.24
2019-01-04T13:18:49.605Z,62.71
2019-01-04T13:21:51.291Z,62.56
2019-01-04T13:24:52.682Z,62.74
2019-01-04T13:27:54.159Z,62.80
2019-01-04T13:30:55.544Z,62.48
2019-01-04T13:33:57.107Z,63.84
2019-01-04T13:36:58.501Z,64.78
2019-01-04T13:40:00.019Z,65.08
2019-01-04T13:43:01.509Z,65.55
2019-01-04T13:46:03.025Z,66.53
2019-01-04T13:49:04.638Z,66.96
2019-01-04T13:52:06.129Z,68.44
2019-01-04T13:55:07.541Z,68.41
2019-01-04T13:58:09.274Z,69.31
2019-01-04T14:01:10.674Z,69.44
2019-01-04T14:04:12.145Z,70.19
2019-01-04T14:07:13.645Z,70.66
2019-01-04T14:10:15.156Z,70.86
2019-01-04T14:13:16.554Z,71.13
2019-01-04T14:16:19.190Z,71.36
2019-01-04T14:19:21.025Z,71.25
2019-01-04T14:22:22.548Z,71.17
2019-01-04T14:25:24.009Z,71.33
2019-01-04T14:28:25.617Z,71.34
2019-01-04T14:31:27.101Z,71.48
2019-01-04T14:34:30.576Z,71.42
2019-01-04T14:37:31.967Z,71.80
2019-01-04T14:40:33.582Z,71.81
2019-01-04T14:43:34.976Z,72.02
2019-01-04T14:46:36.850Z,71.88
2019-01-04T14:49:38.418Z,72.75
2019-01-04T14:52:40.829Z,72.54
2019-01-04T14:55:42.227Z,72.47
2019-01-04T14:58:43.701Z,72.54
2019-01-04T15:01:45.101Z,72.56
2019-01-04T15:04:46.641Z,72.92
2019-01-04T15:07:48.144Z,73.06
2019-01-04T15:10:49.628Z,73.08
2019-01-04T15:13:51.017Z,73.05
2019-01-04T15:16:52.561Z,72.89
2019-01-04T15:19:54.070Z,73.37
2019-01-04T15:22:55.873Z,73.46
2019-01-04T15:25:57.269Z,73.93
2019-01-04T15:28:58.793Z,73.80
2019-01-04T15:32:00.182Z,74.04
2019-01-04T15:35:01.790Z,73.91
2019-01-04T15:38:03.381Z,73.99
2019-01-04T15:41:04.938Z,73.89
2019-01-04T15:44:06.430Z,73.91
2019-01-04T15:47:08.019Z,73.83
2019-01-04T15:50:09.639Z,73.99
2019-01-04T15:53:11.129Z,74.05
2019-01-04T15:56:12.606Z,74.41
2019-01-04T15:59:14.089Z,74.33
2019-01-04T16:02:15.486Z,74.06
2019-01-04T16:05:17.144Z,74.16
2019-01-04T16:08:18.648Z,73.83
2019-01-04T16:11:20.156Z,73.90
2019-01-04T16:14:21.550Z,73.89
2019-01-04T16:17:23.021Z,73.60
2019-01-04T16:20:24.798Z,73.10
2019-01-04T16:23:26.381Z,73.20
2019-01-04T16:26:27.773Z,72.83
2019-01-04T16:29:29.247Z,73.07
2019-01-04T16:32:30.737Z,73.23
2019-01-04T16:35:32.398Z,73.11
2019-01-04T16:38:33.789Z,72.98
2019-01-04T16:41:35.373Z,73.14
2019-01-04T16:44:37.051Z,73.04
2019-01-04T16:47:39.136Z,72.96
2019-01-04T16:50:40.747Z,72.85
2019-01-04T16:53:42.350Z,73.08
2019-01-04T16:56:45.157Z,72.83
2019-01-04T16:59:46.793Z,73.02
2019-01-04T17:02:48.183Z,72.84
2019-01-04T17:05:49.807Z,72.88
2019-01-04T17:08:54.829Z,73.01
2019-01-04T17:11:56.559Z,73.19
2019-01-04T17:14:58.055Z,73.42
2019-01-04T17:17:59.525Z,73.64
2019-01-04T17:21:01.233Z,73.67
2019-01-04T17:24:03.845Z,73.94
2019-01-04T17:27:05.233Z,74.20
2019-01-04T17:30:08.494Z,74.13
2019-01-04T17:33:09.887Z,74.38
2019-01-04T17:36:11.504Z,74.35
2019-01-04T17:39:12.991Z,74.54
2019-01-04T17:42:14.513Z,74.56
2019-01-04T17:45:15.904Z,74.65
2019-01-04T17:48:17.522Z,74.94
2019-01-04T17:51:19.144Z,75.08
2019-01-04T17:54:20.737Z,75.45
2019-01-04T17:57:22.125Z,75.96
2019-01-04T18:00:23.740Z,76.52
2019-01-04T18:03:25.244Z,76.92
2019-01-04T18:06:26.821Z,77.21
2019-01-04T18:09:29.196Z,77.51
2019-01-04T18:12:30.787Z,77.65
2019-01-04T18:15:32.274Z,77.73
2019-01-04T18:18:33.840Z,77.82
2019-01-04T18:21:35.418Z,77.91
2019-01-04T18:24:37.012Z,77.93
2019-01-04T18:27:38.405Z,78.22
2019-01-04T18:30:39.916Z,78.26
2019-01-04T18:33:42.578Z,77.97
2019-01-04T18:36:44.138Z,77.81
2019-01-04T18:39:45.527Z,77.78
2019-01-04T18:42:47.063Z,77.74
2019-01-04T18:45:48.450Z,77.74
2019-01-04T18:48:49.979Z,77.51
2019-01-04T18:51:51.498Z,77.65
2019-01-04T18:54:53.077Z,77.40
2019-01-04T18:57:54.471Z,77.28
2019-01-04T19:00:55.988Z,77.28
2019-01-04T19:03:57.402Z,77.13
2019-01-04T19:06:58.900Z,77.30
2019-01-04T19:10:01.419Z,77.12
2019-01-04T19:13:03.346Z,77.10
2019-01-04T19:16:04.935Z,77.12
2019-01-04T19:19:06.549Z,76.96
2019-01-04T19:22:08.457Z,76.72
2019-01-04T19:25:10.036Z,76.71
2019-01-04T19:28:11.422Z,76.61
2019-01-04T19:31:13.091Z,76.54
2019-01-04T19:34:14.579Z,76.59
2019-01-04T19:37:16.199Z,76.51
2019-01-04T19:40:17.591Z,76.66
2019-01-04T19:43:19.211Z,76.81
2019-01-04T19:46:20.594Z,76.82
2019-01-04T19:49:22.109Z,77.12
2019-01-04T19:52:23.712Z,77.41
2019-01-04T19:55:25.587Z,77.64
2019-01-04T19:58:27.069Z,77.84
2019-01-04T20:01:28.647Z,77.64
2019-01-04T20:04:30.148Z,77.57
2019-01-04T20:08:00.476Z,77.43
2019-01-04T20:11:25.898Z,77.33
2019-01-04T20:15:02.513Z,77.39
2019-01-04T20:18:29.231Z,77.13
2019-01-04T20:21:41.930Z,76.87
2019-01-04T20:24:52.264Z,76.80
2019-01-04T20:28:12.543Z,76.66
2019-01-04T20:31:21.566Z,76.86
2019-01-04T20:34:36.956Z,77.10
2019-01-04T20:37:50.524Z,77.42
2019-01-04T20:41:10.685Z,77.25
2019-01-04T20:44:13.985Z,77.44
2019-01-04T20:47:33.857Z,77.69
2019-01-04T20:50:43.305Z,77.90
2019-01-04T20:53:48.025Z,78.00
2019-01-04T20:56:57.522Z,77.90
2019-01-04T21:00:17.294Z,77.83
2019-01-04T21:03:26.490Z,77.95
2019-01-04T21:06:46.397Z,78.23
2019-01-04T21:10:01.470Z,78.27
2019-01-04T21:13:12.034Z,78.42
2019-01-04T21:16:18.347Z,78.81
2019-01-04T21:19:23.307Z,79.08
2019-01-04T21:22:35.658Z,79.08
2019-01-04T21:25:39.049Z,79.12
2019-01-04T21:28:57.417Z,78.95
2019-01-04T21:32:16.041Z,79.09
2019-01-04T21:35:35.855Z,79.25
2019-01-04T21:38:57.865Z,79.24
2019-01-04T21:42:07.271Z,79.14
2019-01-04T21:45:08.847Z,79.21
2019-01-04T21:48:28.421Z,79.30
2019-01-04T21:51:32.641Z,79.23
2019-01-04T21:54:39.759Z,79.12
2019-01-04T21:57:46.814Z,78.96
2019-01-04T22:00:50.224Z,79.01
2019-01-04T22:03:54.639Z,79.12
2019-01-04T22:07:14.698Z,79.29
2019-01-04T22:10:20.989Z,79.47
2019-01-04T22:13:30.953Z,79.56
2019-01-04T22:16:34.605Z,79.65
2019-01-04T22:19:38.565Z,79.73
2019-01-04T22:22:59.070Z,79.98
2019-01-04T22:26:18.891Z,80.24
2019-01-04T22:29:27.907Z,80.27
2019-01-04T22:32:41.526Z,80.28
2019-01-04T22:35:44.915Z,80.28
2019-01-04T22:39:04.821Z,80.43
2019-01-04T22:42:11.915Z,80.59
2019-01-04T22:45:24.040Z,80.70
2019-01-04T22:48:37.717Z,80.72
2019-01-04T22:51:46.897Z,80.89
2019-01-04T22:54:55.950Z,81.07
2019-01-04T22:58:15.689Z,81.04
2019-01-04T23:01:27.732Z,80.97
2019-01-04T23:04:36.935Z,81.01
2019-01-04T23:07:56.796Z,81.03
2019-01-04T23:11:02.718Z,81.15
2019-01-04T23:14:22.954Z,81.43
2019-01-04T23:17:28.912Z,81.50
2019-01-04T23:20:44.185Z,81.63
2019-01-04T23:23:59.698Z,81.54
2019-01-04T23:27:19.863Z,81.53
2019-01-04T23:30:35.025Z,81.50
2019-01-04T23:33:38.440Z,81.63
2019-01-04T23:36:53.581Z,81.92
2019-01-04T23:40:13.396Z,82.06
2019-01-04T23:43:33.149Z,82.10
2019-01-04T23:46:42.627Z,82.03
2019-01-04T23:49:54.865Z,81.95
2019-01-04T23:53:07.541Z,81.85
2019-01-04T23:56:27.659Z,81.76
2019-01-04T23:59:31.029Z,81.73
